Time;durP1;ratioP1;P1;durP2;ratioP2;P2;SDS_P1;SDS_P2;PMS_P1;PMS_P2;Temp;Humidity;BMP_temperature;BMP_pressure;BME280_temperature;BME280_humidity;BME280_pressure;Samples;Min_cycle;Max_cycle;Signal;HPM_P1;HPM_P2
2021/10/28 00:30:14;;;;;;;;;;;;;;;14.87;53.93;102305.66;145002;937;1020;-92
2021/10/28 00:32:41;;;;;;;;;;;;;;;14.91;53.89;102308.37;145002;924;1017;-87
2021/10/28 00:35:10;;;;;;;;;;;;;;;14.91;54.19;102308.37;145002;917;1016;-84
2021/10/28 00:37:38;;;;;;;;;;;;;;;14.95;54.45;102308.53;145002;922;1017;-86
2021/10/28 00:47:41;;;;;;;;;;;;;;;15.10;53.67;102299.50;145002;931;1016;-91
2021/10/28 00:50:09;;;;;;;;;;;;;;;15.03;54.02;102299.25;145002;920;1019;-90
2021/10/28 01:02:51;;;;;;;;;;;;;;;15.09;54.08;102298.59;145002;931;1017;-87
2021/10/28 01:05:20;;;;;;;;;;;;;;;14.87;54.31;102284.75;145002;920;1016;-82
2021/10/28 02:04:20;;;;;;;;;;;;;;;13.97;57.62;102284.69;145002;930;1024;-83
2021/10/28 02:07:01;;;;;;;;;;;;;;;13.96;58.31;102275.94;145002;919;1017;-88
2021/10/28 02:09:42;;;;;;;;;;;;;;;13.87;58.71;102269.47;145002;922;1016;-86
2021/10/28 02:12:26;;;;;;;;;;;;;;;13.84;58.60;102274.56;145002;919;1017;-83
2021/10/28 02:15:15;;;;;;;;;;;;;;;13.76;58.41;102261.19;145001;921;2000;-87
2021/10/28 02:27:57;;;;;;;;;;;;;;;13.61;58.45;102266.66;145002;928;1017;-91
2021/10/28 02:30:23;;;;;;;;;;;;;;;13.61;59.03;102275.38;145002;924;1016;-87
2021/10/28 02:33:16;;;;;;;;;;;;;;;13.62;58.70;102271.06;145002;917;1016;-83
2021/10/28 02:40:40;;;;;;;;;;;;;;;13.71;58.41;102267.94;145002;930;1016;-82
2021/10/28 02:43:09;;;;;;;;;;;;;;;13.78;58.55;102270.87;145002;919;1016;-84
2021/10/28 02:45:37;;;;;;;;;;;;;;;13.94;57.19;102268.91;145002;922;1017;-91
2021/10/28 02:48:13;;;;;;;;;;;;;;;13.87;57.73;102277.28;145002;919;1015;-89
2021/10/28 02:50:40;;;;;;;;;;;;;;;13.76;57.75;102279.44;145001;921;2000;-89
2021/10/28 02:53:06;;;;;;;;;;;;;;;13.69;58.37;102278.31;145002;920;1017;-82
2021/10/28 02:55:37;;;;;;;;;;;;;;;13.57;59.07;102275.22;145002;921;1018;-81
2021/10/28 03:32:42;;;;;;;;;;;;;;;14.01;57.83;102289.19;145002;934;1016;-86
2021/10/28 04:52:52;;;;;;;;;;;;;;;13.88;58.38;102329.56;145002;931;1017;-81
2021/10/28 04:55:22;;;;;;;;;;;;;;;13.99;58.38;102332.63;145002;919;1017;-88
2021/10/28 04:57:52;;;;;;;;;;;;;;;14.12;56.94;102331.41;145002;921;1016;-81
2021/10/28 05:00:27;;;;;;;;;;;;;;;14.29;56.84;102332.09;145002;920;1016;-89
2021/10/28 05:03:08;;;;;;;;;;;;;;;14.48;56.51;102324.16;145002;917;1016;-82
2021/10/28 06:15:43;;;;;;;;;;;;;;;15.22;56.29;102373.16;145002;933;1015;-83
2021/10/28 06:18:37;;;;;;;;;;;;;;;15.42;56.33;102380.00;145002;921;1021;-87
2021/10/28 06:21:11;;;;;;;;;;;;;;;15.67;56.11;102375.66;145002;919;1019;-89
2021/10/28 06:23:38;;;;;;;;;;;;;;;15.90;55.70;102381.72;145002;917;1018;-84
2021/10/28 06:26:05;;;;;;;;;;;;;;;16.03;55.22;102382.16;145002;919;1019;-90
2021/10/28 06:28:35;;;;;;;;;;;;;;;16.28;54.88;102384.75;145002;917;1019;-83
2021/10/28 06:31:13;;;;;;;;;;;;;;;16.59;54.49;102384.84;145002;918;1019;-90
2021/10/28 06:34:17;;;;;;;;;;;;;;;;;;;;;
2021/10/28 06:49:47;;;;;;;;;;;;;;;18.63;51.73;102376.44;145002;931;1017;-90
2021/10/28 07:10:55;;;;;;;;;;;;;;;;;;;;;
2021/10/28 07:13:55;;;;;;;;;;;;;;;20.59;49.62;102377.50;145002;922;1017;-83
2021/10/28 07:17:00;;;;;;;;;;;;;;;20.89;49.33;102381.47;145002;913;1019;-87
2021/10/28 07:30:22;;;;;;;;;;;;;;;21.47;48.77;102383.91;145002;933;1020;-88
2021/10/28 07:33:18;;;;;;;;;;;;;;;21.43;48.64;102382.13;145002;919;1017;-87
2021/10/28 07:35:59;;;;;;;;;;;;;;;21.24;48.62;102367.81;145001;922;2000;-87
2021/10/28 07:56:02;;;;;;;;;;;;;;;21.07;48.75;102374.66;145002;917;1020;-87
2021/10/28 08:14:59;;;;;;;;;;;;;;;21.92;48.18;102355.31;145002;920;1023;-83
2021/10/28 08:17:41;;;;;;;;;;;;;;;21.91;47.79;102350.91;145002;919;1022;-87
2021/10/28 08:20:17;;;;;;;;;;;;;;;21.78;44.15;102360.50;145002;922;1021;-85
2021/10/28 08:22:49;;;;;;;;;;;;;;;21.71;44.53;102362.19;145001;920;1998;-84
2021/10/28 08:30:43;;;;;;;;;;;;;;;20.97;47.43;102349.91;145002;921;1017;-82
2021/10/28 08:33:22;;;;;;;;;;;;;;;;;;;;;
2021/10/28 08:36:20;;;;;;;;;;;;;;;;;;;;;
2021/10/28 08:42:32;;;;;;;;;;;;;;;;;;;;;
2021/10/28 08:45:08;;;;;;;;;;;;;;;20.48;47.59;102342.16;145002;913;1019;-82
2021/10/28 08:47:34;;;;;;;;;;;;;;;20.34;43.60;102333.16;145001;919;2002;-83
2021/10/28 08:50:06;;;;;;;;;;;;;;;20.12;47.44;102348.63;145002;916;1020;-84
2021/10/28 08:52:46;;;;;;;;;;;;;;;19.82;44.57;102339.38;145002;922;1020;-82
2021/10/28 08:55:30;;;;;;;;;;;;;;;20.04;48.10;102353.78;145002;919;1018;-84
2021/10/28 09:24:17;;;;;;;;;;;;;;;19.58;46.12;102326.59;145002;917;1020;-82
2021/10/28 09:26:58;;;;;;;;;;;;;;;19.29;44.82;102320.81;145002;922;1019;-85
2021/10/28 09:29:44;;;;;;;;;;;;;;;19.08;48.49;102326.53;145002;920;1017;-86
2021/10/28 09:32:36;;;;;;;;;;;;;;;18.97;48.97;102331.56;145002;922;1018;-85
2021/10/28 09:44:35;;;;;;;;;;;;;;;18.45;48.24;102326.94;145002;917;1021;-87
2021/10/28 09:47:17;;;;;;;;;;;;;;;18.44;48.94;102329.53;145002;919;1022;-83
2021/10/28 09:50:03;;;;;;;;;;;;;;;18.48;48.94;102321.75;145002;922;1024;-84
2021/10/28 09:52:33;;;;;;;;;;;;;;;18.61;48.65;102316.75;145002;919;1018;-84
2021/10/28 09:57:37;;;;;;;;;;;;;;;18.67;48.90;102316.88;145002;922;1020;-84
2021/10/28 09:58:04;;;;;;;;;;;;;;;18.74;48.63;102315.25;145002;916;1021;-86
2021/10/28 10:00:40;;;;;;;;;;;;;;;18.81;48.44;102320.69;145002;921;1020;-86
2021/10/28 10:03:14;;;;;;;;;;;;;;;18.94;48.13;102307.84;145002;920;1017;-84
2021/10/28 10:05:40;;;;;;;;;;;;;;;19.06;48.16;102315.06;145002;922;1017;-85
2021/10/28 10:08:13;;;;;;;;;;;;;;;19.11;47.56;102308.19;145002;919;1019;-85
2021/10/28 10:10:40;;;;;;;;;;;;;;;19.20;47.55;102305.69;145002;922;1016;-84
2021/10/28 10:13:06;;;;;;;;;;;;;;;19.24;46.90;102296.12;145002;920;1018;-85
2021/10/28 10:15:32;;;;;;;;;;;;;;;19.25;45.95;102292.62;145002;921;1020;-84
2021/10/28 10:18:05;;;;;;;;;;;;;;;19.33;46.78;102294.56;145002;920;1020;-85
2021/10/28 10:20:45;;;;;;;;;;;;;;;19.20;46.68;102285.56;145001;922;2000;-84
2021/10/28 10:29:37;;;;;;;;;;;;;;;18.76;46.92;102288.16;145002;916;1021;-86
2021/10/28 11:27:48;;;;;;;;;;;;;;;20.26;46.63;102212.63;145002;916;1018;-85
2021/10/28 11:30:56;;;;;;;;;;;;;;;20.14;45.98;102204.56;145002;921;1019;-85
2021/10/28 12:47:16;;;;;;;;;;;;;;;19.42;46.57;102143.72;145002;915;1021;-87
2021/10/28 12:53:11;;;;;;;;;;;;;;;19.50;46.27;102131.59;145002;915;1020;-85
2021/10/28 13:05:12;;;;;;;;;;;;;;;18.69;46.93;102133.66;145002;922;1018;-89
2021/10/28 13:27:56;;;;;;;;;;;;;;;18.66;45.50;102129.25;145002;917;1016;-89
2021/10/28 13:38:38;;;;;;;;;;;;;;;18.77;46.07;102118.94;145002;915;1018;-90
2021/10/28 13:49:18;;;;;;;;;;;;;;;18.69;46.18;102112.63;145002;918;1018;-90
2021/10/28 14:15:10;;;;;;;;;;;;;;;18.07;45.86;102118.44;145002;940;1023;-89
2021/10/28 14:18:15;;;;;;;;;;;;;;;18.11;45.66;102112.38;145002;916;1018;-89
2021/10/28 15:29:30;;;;;;;;;;;;;;;17.74;46.89;102133.47;145002;917;1019;-88
2021/10/28 15:49:40;;;;;;;;;;;;;;;17.31;46.99;102142.94;145002;919;1021;-87
2021/10/28 16:00:12;;;;;;;;;;;;;;;17.47;47.51;102148.59;145002;919;1017;-92
2021/10/28 16:22:05;;;;;;;;;;;;;;;17.80;46.42;102169.50;145002;919;1017;-91
2021/10/28 16:24:33;;;;;;;;;;;;;;;17.83;46.22;102173.91;145002;919;1021;-91
2021/10/28 16:26:59;;;;;;;;;;;;;;;17.81;46.56;102167.75;145002;921;1019;-90
2021/10/28 16:29:29;;;;;;;;;;;;;;;17.77;46.25;102180.81;145002;920;1018;-91
2021/10/28 16:31:55;;;;;;;;;;;;;;;17.76;46.49;102181.66;145002;922;1018;-90
2021/10/28 16:34:27;;;;;;;;;;;;;;;17.75;46.66;102176.34;145002;919;1020;-91
2021/10/28 16:36:54;;;;;;;;;;;;;;;17.74;46.34;102174.59;145002;921;1018;-91
2021/10/28 16:39:20;;;;;;;;;;;;;;;17.74;46.34;102182.47;145002;920;1019;-89
2021/10/28 16:41:47;;;;;;;;;;;;;;;17.63;46.63;102182.22;145002;921;1019;-88
2021/10/28 16:44:14;;;;;;;;;;;;;;;17.63;46.75;102189.22;145002;919;1022;-88
2021/10/28 16:46:43;;;;;;;;;;;;;;;17.50;46.68;102185.38;145002;922;1020;-89
2021/10/28 16:49:11;;;;;;;;;;;;;;;17.40;47.00;102189.53;145001;919;1998;-91
2021/10/28 16:51:37;;;;;;;;;;;;;;;17.38;46.67;102193.84;145002;923;1017;-88
2021/10/28 16:54:03;;;;;;;;;;;;;;;17.37;46.76;102200.84;145002;922;1018;-86
2021/10/28 16:56:29;;;;;;;;;;;;;;;17.38;46.67;102202.59;145002;924;1020;-85
2021/10/28 16:58:55;;;;;;;;;;;;;;;17.39;46.52;102207.03;145002;921;1020;-88
2021/10/28 17:01:23;;;;;;;;;;;;;;;17.39;46.52;102209.63;145002;881;1017;-86
2021/10/28 17:03:49;;;;;;;;;;;;;;;17.38;46.64;102213.09;145002;921;1020;-86
2021/10/28 17:06:16;;;;;;;;;;;;;;;17.35;46.84;102210.41;145002;919;1020;-87
2021/10/28 17:08:45;;;;;;;;;;;;;;;17.31;46.83;102215.56;145002;921;1018;-86
2021/10/28 17:11:13;;;;;;;;;;;;;;;17.27;46.86;102216.31;145002;923;1018;-85
2021/10/28 17:13:39;;;;;;;;;;;;;;;17.22;46.61;102217.06;145002;912;1018;-89
2021/10/28 17:16:06;;;;;;;;;;;;;;;17.23;47.23;102215.34;145002;924;1021;-89
2021/10/28 17:18:33;;;;;;;;;;;;;;;17.22;47.09;102214.44;145002;922;1021;-89
2021/10/28 17:21:04;;;;;;;;;;;;;;;17.25;46.80;102223.28;145002;923;1016;-88
2021/10/28 17:23:37;;;;;;;;;;;;;;;17.27;46.98;102227.69;145002;922;1016;-89
2021/10/28 17:26:04;;;;;;;;;;;;;;;17.29;47.45;102228.62;145002;924;1017;-87
2021/10/28 17:28:33;;;;;;;;;;;;;;;17.32;47.01;102231.34;145002;921;1018;-91
2021/10/28 17:31:00;;;;;;;;;;;;;;;17.34;47.03;102241.84;145002;924;1016;-90
2021/10/28 17:33:27;;;;;;;;;;;;;;;17.34;47.57;102240.16;145002;922;1017;-87
2021/10/28 17:35:53;;;;;;;;;;;;;;;17.35;47.25;102236.66;145002;919;1020;-89
2021/10/28 17:38:19;;;;;;;;;;;;;;;17.35;47.31;102239.28;145002;921;1018;-91
2021/10/28 17:40:46;;;;;;;;;;;;;;;17.36;47.16;102240.19;145002;924;1022;-88
2021/10/28 17:43:14;;;;;;;;;;;;;;;17.35;47.46;102243.66;145002;921;1017;-90
2021/10/28 17:45:41;;;;;;;;;;;;;;;17.35;47.46;102234.03;145002;924;1016;-90
2021/10/28 17:48:08;;;;;;;;;;;;;;;17.36;47.26;102235.81;145002;922;1017;-89
2021/10/28 17:50:34;;;;;;;;;;;;;;;17.35;47.11;102234.03;145002;923;1018;-89
2021/10/28 17:53:01;;;;;;;;;;;;;;;17.35;46.69;102234.03;145002;922;1020;-87
2021/10/28 17:55:27;;;;;;;;;;;;;;;17.32;47.43;102230.44;145002;924;1018;-89
2021/10/28 17:57:54;;;;;;;;;;;;;;;17.30;47.24;102219.91;145002;921;1016;-88
2021/10/28 18:00:21;;;;;;;;;;;;;;;17.29;47.29;102223.41;145001;923;2000;-89
2021/10/28 18:02:48;;;;;;;;;;;;;;;17.30;47.46;102234.78;145002;922;1020;-88
2021/10/28 18:05:14;;;;;;;;;;;;;;;17.26;47.79;102225.94;145002;923;1020;-90
2021/10/28 18:07:43;;;;;;;;;;;;;;;17.26;47.81;102220.69;145002;921;1018;-87
2021/10/28 18:10:34;;;;;;;;;;;;;;;17.27;47.80;102225.06;145002;924;1015;-85
2021/10/28 18:13:42;;;;;;;;;;;;;;;;;;;;;
2021/10/28 18:16:12;;;;;;;;;;;;;;;17.25;47.32;102229.41;145002;919;1016;-89
2021/10/28 18:18:39;;;;;;;;;;;;;;;17.27;47.63;102230.31;145002;919;1016;-91
2021/10/28 18:21:05;;;;;;;;;;;;;;;17.26;47.59;102230.28;145002;921;1016;-91
2021/10/28 18:23:44;;;;;;;;;;;;;;;17.28;47.84;102242.59;145002;916;1020;-88
2021/10/28 18:26:11;;;;;;;;;;;;;;;17.29;47.56;102231.25;145002;921;1016;-88
2021/10/28 18:31:13;;;;;;;;;;;;;;;17.33;47.51;102232.22;145002;930;1018;-90
2021/10/28 18:33:39;;;;;;;;;;;;;;;17.31;47.05;102231.31;145002;919;1019;-87
2021/10/28 18:36:07;;;;;;;;;;;;;;;17.27;47.31;102238.19;145001;921;2000;-88
2021/10/28 18:38:34;;;;;;;;;;;;;;;17.20;47.30;102242.41;145002;920;1018;-88
2021/10/28 18:41:03;;;;;;;;;;;;;;;17.14;47.68;102236.97;145002;921;1017;-88
2021/10/28 18:43:31;;;;;;;;;;;;;;;17.04;47.83;102238.47;145002;920;1017;-92
2021/10/28 18:45:58;;;;;;;;;;;;;;;16.99;47.41;102240.09;145002;922;1016;-89
2021/10/28 18:48:25;;;;;;;;;;;;;;;17.00;47.97;102244.47;145002;919;1019;-89
2021/10/28 18:50:53;;;;;;;;;;;;;;;16.99;47.85;102245.34;145002;922;1016;-90
2021/10/28 18:53:24;;;;;;;;;;;;;;;16.93;47.46;102245.16;145002;920;1017;-91
2021/10/28 18:55:53;;;;;;;;;;;;;;;16.93;47.47;102236.41;145001;920;2000;-90
2021/10/28 18:58:20;;;;;;;;;;;;;;;16.91;48.09;102236.38;145002;919;1016;-90
2021/10/28 19:01:00;;;;;;;;;;;;;;;;;;;;;
2021/10/28 19:03:26;;;;;;;;;;;;;;;16.89;47.83;102243.28;145002;917;1019;-90
2021/10/28 19:05:55;;;;;;;;;;;;;;;16.86;48.02;102238.84;145002;919;1018;-92
2021/10/28 19:08:36;;;;;;;;;;;;;;;16.86;47.93;102236.25;145002;918;1018;-87
2021/10/28 19:11:03;;;;;;;;;;;;;;;16.87;47.88;102244.97;145002;919;1018;-89
2021/10/28 19:18:30;;;;;;;;;;;;;;;16.92;47.67;102263.47;145002;928;1017;-90
2021/10/28 19:34:50;;;;;;;;;;;;;;;17.07;48.08;102266.53;145002;928;1018;-87
2021/10/28 19:37:49;;;;;;;;;;;;;;;17.10;47.78;102273.59;145002;920;1019;-93
2021/10/28 19:48:58;;;;;;;;;;;;;;;16.94;47.88;102267.94;145002;915;1018;-91
2021/10/28 19:53:55;;;;;;;;;;;;;;;16.89;48.30;102268.62;145002;933;1018;-86
2021/10/28 20:01:36;;;;;;;;;;;;;;;16.83;49.04;102274.53;145002;931;1022;-87
2021/10/28 20:07:16;;;;;;;;;;;;;;;16.69;48.59;102276.78;145002;911;1020;-86
2021/10/28 20:20:39;;;;;;;;;;;;;;;16.38;50.19;102282.84;145002;913;1020;-87
2021/10/28 20:23:05;;;;;;;;;;;;;;;16.26;49.51;102286.84;145002;916;1019;-86
2021/10/28 20:25:31;;;;;;;;;;;;;;;16.22;49.76;102286.72;145002;917;1019;-88
2021/10/28 20:28:02;;;;;;;;;;;;;;;16.22;49.77;102281.47;145002;916;1023;-84
2021/10/28 20:30:34;;;;;;;;;;;;;;;16.18;49.67;102271.72;145002;918;1022;-86
2021/10/28 20:33:00;;;;;;;;;;;;;;;16.16;49.79;102276.03;145002;915;1023;-86
2021/10/28 20:35:52;;;;;;;;;;;;;;;16.14;50.10;102278.59;145002;918;1018;-86
2021/10/28 20:38:15;;;;;;;;;;;;;;;16.13;50.07;102282.97;145002;918;1017;-88
2021/10/28 20:40:42;;;;;;;;;;;;;;;16.14;50.32;102278.59;145002;921;1016;-88
2021/10/28 20:43:08;;;;;;;;;;;;;;;16.18;49.79;102272.62;145002;920;1017;-89
2021/10/28 20:45:34;;;;;;;;;;;;;;;16.23;50.08;102271.03;145002;922;1017;-89
2021/10/28 20:48:00;;;;;;;;;;;;;;;16.26;49.88;102273.75;145002;915;1018;-87
2021/10/28 20:50:28;;;;;;;;;;;;;;;16.29;50.18;102271.22;145002;922;1016;-89
2021/10/28 20:52:55;;;;;;;;;;;;;;;16.33;50.25;102269.59;145002;922;1017;-92
2021/10/28 20:55:27;;;;;;;;;;;;;;;16.36;50.62;102266.19;145001;923;2000;-92
2021/10/28 20:57:54;;;;;;;;;;;;;;;16.38;49.89;102267.09;145002;922;1016;-90
2021/10/28 21:00:21;;;;;;;;;;;;;;;16.39;50.12;102275.03;145002;924;1021;-90
2021/10/28 21:02:49;;;;;;;;;;;;;;;16.39;49.55;102272.41;145002;921;1021;-89
2021/10/28 21:05:19;;;;;;;;;;;;;;;16.42;49.89;102264.63;145002;924;1018;-89
2021/10/28 21:07:46;;;;;;;;;;;;;;;16.42;50.57;102262.00;145002;922;1020;-89
2021/10/28 21:10:13;;;;;;;;;;;;;;;16.43;50.32;102260.28;145002;923;1017;-87
2021/10/28 21:12:40;;;;;;;;;;;;;;;16.40;50.14;102253.22;145002;922;1023;-88
2021/10/28 21:15:08;;;;;;;;;;;;;;;16.36;50.18;102255.69;145002;923;1019;-88
2021/10/28 21:17:35;;;;;;;;;;;;;;;16.33;50.03;102246.87;145002;921;1018;-85
2021/10/28 21:20:01;;;;;;;;;;;;;;;16.33;50.29;102244.25;145002;924;1017;-87
2021/10/28 21:22:28;;;;;;;;;;;;;;;16.36;50.20;102235.62;145002;922;1016;-89
2021/10/28 21:24:55;;;;;;;;;;;;;;;16.35;50.37;102235.56;145002;926;1019;-88
2021/10/28 21:27:21;;;;;;;;;;;;;;;16.30;50.00;102240.66;145002;922;1021;-88
2021/10/28 21:29:47;;;;;;;;;;;;;;;16.31;51.10;102242.44;145002;924;1018;-90
2021/10/28 21:32:14;;;;;;;;;;;;;;;16.31;50.47;102238.09;145002;921;1016;-89
2021/10/28 21:34:41;;;;;;;;;;;;;;;16.28;50.89;102230.13;145002;924;1021;-89
2021/10/28 21:37:11;;;;;;;;;;;;;;;16.23;50.86;102228.25;145002;922;1017;-87
2021/10/28 21:39:38;;;;;;;;;;;;;;;16.05;51.20;102232.06;145002;923;1016;-89
2021/10/28 21:42:04;;;;;;;;;;;;;;;15.91;51.33;102226.37;145002;922;1020;-88
2021/10/28 21:44:32;;;;;;;;;;;;;;;15.89;52.32;102230.69;145002;924;1021;-88
2021/10/28 21:46:58;;;;;;;;;;;;;;;15.90;51.31;102228.94;145002;922;1018;-87
2021/10/28 21:49:24;;;;;;;;;;;;;;;15.86;52.54;102220.13;145002;923;1019;-88
2021/10/28 21:51:54;;;;;;;;;;;;;;;15.77;51.76;102217.19;145002;918;1017;-89
2021/10/28 21:54:41;;;;;;;;;;;;;;;15.65;53.00;102219.38;145002;924;1021;-90
2021/10/28 22:00:25;;;;;;;;;;;;;;;15.62;52.87;102224.50;145002;916;1024;-89
2021/10/28 22:06:10;;;;;;;;;;;;;;;15.53;53.21;102219.87;145002;918;1018;-90
2021/10/28 22:24:59;;;;;;;;;;;;;;;15.14;53.98;102201.97;145002;915;1024;-86
2021/10/28 22:27:26;;;;;;;;;;;;;;;15.17;53.75;102200.34;145002;918;1021;-83
2021/10/28 22:29:53;;;;;;;;;;;;;;;15.16;54.13;102203.81;145002;920;1019;-87
2021/10/28 22:32:19;;;;;;;;;;;;;;;14.83;56.25;102198.28;145002;923;1020;-87
2021/10/28 22:34:46;;;;;;;;;;;;;;;14.81;55.08;102199.94;145002;920;1019;-88
2021/10/28 22:40:19;;;;;;;;;;;;;;;14.76;55.59;102189.34;145002;915;1019;-86
2021/10/28 22:42:45;;;;;;;;;;;;;;;14.72;55.18;102192.66;145002;922;1018;-87
2021/10/28 22:45:11;;;;;;;;;;;;;;;14.61;55.69;102183.56;145002;916;1017;-87
2021/10/28 22:47:37;;;;;;;;;;;;;;;14.63;55.37;102187.97;145002;917;1020;-88
2021/10/28 22:50:05;;;;;;;;;;;;;;;14.66;55.05;102181.97;145002;920;1019;-87
2021/10/28 22:52:32;;;;;;;;;;;;;;;14.68;55.74;102196.91;145002;922;1017;-86
2021/10/28 22:55:10;;;;;;;;;;;;;;;14.80;55.62;102199.06;145002;919;1020;-86
2021/10/28 22:57:58;;;;;;;;;;;;;;;14.87;54.69;102201.06;145002;922;1021;-86
2021/10/28 23:03:27;;;;;;;;;;;;;;;14.95;54.85;102198.69;145002;917;1018;-86
2021/10/28 23:10:09;;;;;;;;;;;;;;;14.94;55.36;102189.09;145002;917;1018;-86
2021/10/28 23:12:04;;;;;;;;;;;;;;;15.00;54.77;102197.16;145002;916;1018;-85
2021/10/28 23:14:44;;;;;;;;;;;;;;;15.03;55.33;102188.50;145002;918;1020;-87
2021/10/28 23:22:58;;;;;;;;;;;;;;;14.96;55.68;102170.84;145002;915;1021;-86
2021/10/28 23:25:24;;;;;;;;;;;;;;;14.93;55.60;102186.44;145002;921;1022;-87
2021/10/28 23:27:50;;;;;;;;;;;;;;;14.86;55.48;102182.72;145002;920;1019;-85
2021/10/28 23:30:16;;;;;;;;;;;;;;;14.79;57.45;102178.09;145002;922;1022;-86
2021/10/28 23:32:42;;;;;;;;;;;;;;;14.83;55.91;102172.16;145002;919;1018;-86
2021/10/28 23:35:08;;;;;;;;;;;;;;;14.72;56.64;102173.50;145002;922;1019;-85
2021/10/28 23:37:34;;;;;;;;;;;;;;;14.64;56.55;102178.44;145002;920;1019;-86
2021/10/28 23:40:00;;;;;;;;;;;;;;;14.72;56.10;102179.59;145002;921;1019;-87
2021/10/28 23:42:26;;;;;;;;;;;;;;;14.80;56.36;102174.66;145002;920;1023;-87
2021/10/28 23:44:52;;;;;;;;;;;;;;;14.85;56.08;102178.31;145002;918;1019;-85
2021/10/28 23:47:18;;;;;;;;;;;;;;;14.86;55.69;102178.38;145002;915;1020;-85
2021/10/28 23:49:44;;;;;;;;;;;;;;;14.92;55.74;102179.41;145002;918;1020;-85
2021/10/28 23:52:10;;;;;;;;;;;;;;;14.94;56.09;102180.38;145002;916;1022;-85
2021/10/28 23:54:36;;;;;;;;;;;;;;;14.97;56.14;102178.75;145002;917;1024;-85
2021/10/28 23:57:02;;;;;;;;;;;;;;;15.00;55.75;102176.25;145002;920;1021;-87
2021/10/28 23:59:28;;;;;;;;;;;;;;;14.96;56.14;102171.72;145001;922;1998;-87
